sensor_id;sensor_type;location;lat;lon;timestamp;P1;P2;P0
49570;PMS7003;36970;39.352;20.286;2022-09-27T00:14:52;6.67;6.67;5.67
49570;PMS7003;36970;39.352;20.286;2022-09-27T01:15:16;3.67;3.67;3.00
49570;PMS7003;36970;39.352;20.286;2022-09-27T01:45:27;2.67;2.67;2.33
49570;PMS7003;36970;39.352;20.286;2022-09-27T02:15:54;1.67;1.67;0.00
49570;PMS7003;36970;39.352;20.286;2022-09-27T02:46:23;2.00;2.00;1.67
49570;PMS7003;36970;39.352;20.286;2022-09-27T03:16:40;3.67;3.67;2.67
49570;PMS7003;36970;39.352;20.286;2022-09-27T03:47:08;1.00;1.00;0.00
49570;PMS7003;36970;39.352;20.286;2022-09-27T04:17:11;2.00;2.00;1.00
49570;PMS7003;36970;39.352;20.286;2022-09-27T04:47:42;5.00;5.00;3.33
49570;PMS7003;36970;39.352;20.286;2022-09-27T07:18:53;4.00;4.00;3.00
49570;PMS7003;36970;39.352;20.286;2022-09-27T07:48:57;3.67;3.67;2.67
49570;PMS7003;36970;39.352;20.286;2022-09-27T08:19:25;3.00;3.00;2.67
49570;PMS7003;36970;39.352;20.286;2022-09-27T08:49:57;3.67;3.00;2.33
49570;PMS7003;36970;39.352;20.286;2022-09-27T09:20:12;3.00;3.00;2.00
49570;PMS7003;36970;39.352;20.286;2022-09-27T09:50:29;3.00;2.00;1.33
49570;PMS7003;36970;39.352;20.286;2022-09-27T10:20:38;7.00;7.00;4.33
49570;PMS7003;36970;39.352;20.286;2022-09-27T10:50:52;5.00;5.00;3.67
49570;PMS7003;36970;39.352;20.286;2022-09-27T11:21:03;5.00;5.00;3.00
49570;PMS7003;36970;39.352;20.286;2022-09-27T11:51:19;5.33;5.00;3.00
49570;PMS7003;36970;39.352;20.286;2022-09-27T12:21:31;6.67;6.67;5.00
49570;PMS7003;36970;39.352;20.286;2022-09-27T12:51:36;10.00;9.00;7.67
49570;PMS7003;36970;39.352;20.286;2022-09-27T13:21:59;10.33;10.00;8.00
49570;PMS7003;36970;39.352;20.286;2022-09-27T13:52:25;10.33;8.33;6.00
49570;PMS7003;36970;39.352;20.286;2022-09-27T14:22:44;6.67;5.00;3.67
49570;PMS7003;36970;39.352;20.286;2022-09-27T14:52:56;7.00;5.33;4.00
49570;PMS7003;36970;39.352;20.286;2022-09-27T15:23:01;7.00;7.00;5.00
49570;PMS7003;36970;39.352;20.286;2022-09-27T15:53:04;5.67;5.67;4.67
49570;PMS7003;36970;39.352;20.286;2022-09-27T16:23:08;5.33;4.00;2.67
49570;PMS7003;36970;39.352;20.286;2022-09-27T16:53:11;7.00;7.00;6.00
49570;PMS7003;36970;39.352;20.286;2022-09-27T17:23:14;10.00;8.00;5.33
49570;PMS7003;36970;39.352;20.286;2022-09-27T17:53:16;9.33;8.33;6.00
49570;PMS7003;36970;39.352;20.286;2022-09-27T18:23:19;10.00;10.00;5.67
49570;PMS7003;36970;39.352;20.286;2022-09-27T18:53:21;6.00;4.67;4.00
49570;PMS7003;36970;39.352;20.286;2022-09-27T19:23:24;5.67;5.00;4.00
49570;PMS7003;36970;39.352;20.286;2022-09-27T19:53:27;6.00;6.00;4.67
49570;PMS7003;36970;39.352;20.286;2022-09-27T20:23:31;6.33;6.33;5.33
49570;PMS7003;36970;39.352;20.286;2022-09-27T20:53:34;6.67;6.67;3.00
49570;PMS7003;36970;39.352;20.286;2022-09-27T21:23:37;6.33;6.33;4.00
49570;PMS7003;36970;39.352;20.286;2022-09-27T21:53:42;7.33;6.00;4.00
49570;PMS7003;36970;39.352;20.286;2022-09-27T22:23:53;5.00;5.00;4.33
49570;PMS7003;36970;39.352;20.286;2022-09-27T22:53:55;5.67;5.00;4.00
49570;PMS7003;36970;39.352;20.286;2022-09-27T23:23:58;3.33;3.33;2.00
49570;PMS7003;36970;39.352;20.286;2022-09-27T23:54:01;5.33;3.67;2.00
